sensor_id;sensor_type;location;lat;lon;timestamp;pressure;altitude;pressure_sealevel;temperature;humidity
77639;BME280;66802;52.574;14.398;2023-08-24T03:01:49;101852.66;;;16.01;78.84
77639;BME280;66802;52.574;14.398;2023-08-24T03:04:14;101856.59;;;16.07;79.68
77639;BME280;66802;52.574;14.398;2023-08-24T03:06:40;101855.75;;;16.06;79.98
77639;BME280;66802;52.574;14.398;2023-08-24T03:09:05;101849.31;;;16.16;79.21
77639;BME280;66802;52.574;14.398;2023-08-24T03:11:31;101856.00;;;16.21;78.97
77639;BME280;66802;52.574;14.398;2023-08-24T03:13:56;101856.50;;;16.25;79.23
77639;BME280;66802;52.574;14.398;2023-08-24T03:16:22;101853.78;;;16.25;78.63
77639;BME280;66802;52.574;14.398;2023-08-24T03:18:47;101856.34;;;16.26;79.25
77639;BME280;66802;52.574;14.398;2023-08-24T03:21:13;101850.72;;;16.28;79.16
77639;BME280;66802;52.574;14.398;2023-08-24T03:23:38;101857.22;;;16.35;78.73
77639;BME280;66802;52.574;14.398;2023-08-24T03:26:04;101852.13;;;16.32;79.13
77639;BME280;66802;52.574;14.398;2023-08-24T03:28:30;101850.25;;;16.32;79.46
77639;BME280;66802;52.574;14.398;2023-08-24T03:30:55;101851.78;;;16.35;79.51
77639;BME280;66802;52.574;14.398;2023-08-24T03:33:21;101844.81;;;16.40;79.51
77639;BME280;66802;52.574;14.398;2023-08-24T03:35:47;101847.56;;;16.40;79.46
77639;BME280;66802;52.574;14.398;2023-08-24T03:38:13;101853.50;;;16.44;79.39
77639;BME280;66802;52.574;14.398;2023-08-24T03:40:39;101834.41;;;16.36;79.83
77639;BME280;66802;52.574;14.398;2023-08-24T03:43:05;101837.28;;;16.26;80.77
77639;BME280;66802;52.574;14.398;2023-08-24T03:45:31;101834.84;;;16.15;81.40
77639;BME280;66802;52.574;14.398;2023-08-24T03:47:56;101838.25;;;16.17;81.04
77639;BME280;66802;52.574;14.398;2023-08-24T03:50:22;101830.25;;;16.16;81.38
77639;BME280;66802;52.574;14.398;2023-08-24T03:52:51;101831.78;;;16.18;81.29
77639;BME280;66802;52.574;14.398;2023-08-24T03:55:16;101833.97;;;16.15;81.46
77639;BME280;66802;52.574;14.398;2023-08-24T03:57:42;101832.97;;;16.16;81.30
77639;BME280;66802;52.574;14.398;2023-08-24T04:00:08;101832.34;;;16.22;81.10
77639;BME280;66802;52.574;14.398;2023-08-24T04:02:41;101837.59;;;16.23;81.23
77639;BME280;66802;52.574;14.398;2023-08-24T04:05:06;101834.91;;;16.31;81.18
77639;BME280;66802;52.574;14.398;2023-08-24T04:07:32;101839.50;;;16.31;80.67
77639;BME280;66802;52.574;14.398;2023-08-24T04:10:02;101840.50;;;16.22;81.23
77639;BME280;66802;52.574;14.398;2023-08-24T04:12:30;101842.84;;;16.17;81.31
77639;BME280;66802;52.574;14.398;2023-08-24T04:14:56;101844.56;;;16.18;80.58
77639;BME280;66802;52.574;14.398;2023-08-24T04:17:23;101844.25;;;16.21;81.72
77639;BME280;66802;52.574;14.398;2023-08-24T04:19:49;101836.72;;;16.23;81.07
77639;BME280;66802;52.574;14.398;2023-08-24T04:22:15;101838.81;;;16.29;81.28
77639;BME280;66802;52.574;14.398;2023-08-24T04:24:41;101825.06;;;16.38;81.17
77639;BME280;66802;52.574;14.398;2023-08-24T04:27:06;101828.16;;;16.43;81.06
77639;BME280;66802;52.574;14.398;2023-08-24T04:29:32;101820.63;;;16.46;81.06
77639;BME280;66802;52.574;14.398;2023-08-24T04:31:57;101827.97;;;16.45;80.97
77639;BME280;66802;52.574;14.398;2023-08-24T04:34:23;101828.66;;;16.47;80.95
77639;BME280;66802;52.574;14.398;2023-08-24T04:36:48;101826.97;;;16.54;80.72
77639;BME280;66802;52.574;14.398;2023-08-24T04:39:15;101832.25;;;16.56;80.87
77639;BME280;66802;52.574;14.398;2023-08-24T04:41:40;101825.59;;;16.58;80.85
77639;BME280;66802;52.574;14.398;2023-08-24T04:44:06;101832.47;;;16.62;80.88
77639;BME280;66802;52.574;14.398;2023-08-24T04:46:33;101832.31;;;16.64;81.19
77639;BME280;66802;52.574;14.398;2023-08-24T04:48:59;101838.06;;;16.61;82.23
77639;BME280;66802;52.574;14.398;2023-08-24T04:51:24;101839.66;;;16.63;81.54
77639;BME280;66802;52.574;14.398;2023-08-24T04:53:53;101838.63;;;16.72;81.10
77639;BME280;66802;52.574;14.398;2023-08-24T04:56:19;101835.41;;;16.85;80.77
77639;BME280;66802;52.574;14.398;2023-08-24T04:58:57;101832.16;;;16.82;80.99
77639;BME280;66802;52.574;14.398;2023-08-24T05:01:24;101836.78;;;16.81;80.51
77639;BME280;66802;52.574;14.398;2023-08-24T05:03:55;101836.44;;;16.84;80.73
77639;BME280;66802;52.574;14.398;2023-08-24T05:06:21;101838.00;;;16.87;81.83
77639;BME280;66802;52.574;14.398;2023-08-24T05:08:46;101834.03;;;16.89;80.85
77639;BME280;66802;52.574;14.398;2023-08-24T05:11:13;101834.41;;;16.94;80.38
77639;BME280;66802;52.574;14.398;2023-08-24T05:13:40;101836.44;;;17.00;80.12
77639;BME280;66802;52.574;14.398;2023-08-24T05:16:06;101833.06;;;17.06;80.36
77639;BME280;66802;52.574;14.398;2023-08-24T05:18:31;101839.19;;;17.08;81.12
77639;BME280;66802;52.574;14.398;2023-08-24T05:20:57;101850.28;;;17.15;80.60
77639;BME280;66802;52.574;14.398;2023-08-24T05:23:22;101842.63;;;17.19;80.49
77639;BME280;66802;52.574;14.398;2023-08-24T05:25:48;101838.50;;;17.23;81.29
77639;BME280;66802;52.574;14.398;2023-08-24T05:28:13;101834.59;;;17.25;81.01
77639;BME280;66802;52.574;14.398;2023-08-24T05:30:39;101835.97;;;17.29;80.48
77639;BME280;66802;52.574;14.398;2023-08-24T05:33:04;101841.91;;;17.33;81.28
77639;BME280;66802;52.574;14.398;2023-08-24T05:35:30;101838.50;;;17.39;81.57
77639;BME280;66802;52.574;14.398;2023-08-24T05:37:55;101850.94;;;17.41;81.78
77639;BME280;66802;52.574;14.398;2023-08-24T05:40:21;101847.88;;;17.44;81.38
77639;BME280;66802;52.574;14.398;2023-08-24T05:42:46;101848.38;;;17.48;81.34
77639;BME280;66802;52.574;14.398;2023-08-24T05:45:12;101847.19;;;17.50;81.06
77639;BME280;66802;52.574;14.398;2023-08-24T05:47:37;101844.09;;;17.53;81.91
77639;BME280;66802;52.574;14.398;2023-08-24T05:50:03;101852.81;;;17.57;80.62
77639;BME280;66802;52.574;14.398;2023-08-24T05:52:28;101845.13;;;17.61;79.92
77639;BME280;66802;52.574;14.398;2023-08-24T05:54:54;101848.38;;;17.64;79.80
77639;BME280;66802;52.574;14.398;2023-08-24T05:57:20;101853.34;;;17.69;79.89
77639;BME280;66802;52.574;14.398;2023-08-24T05:59:45;101850.25;;;17.72;79.57
77639;BME280;66802;52.574;14.398;2023-08-24T06:02:11;101852.63;;;17.75;79.22
77639;BME280;66802;52.574;14.398;2023-08-24T06:04:36;101849.72;;;17.76;78.19
77639;BME280;66802;52.574;14.398;2023-08-24T06:07:02;101846.16;;;17.84;78.17
77639;BME280;66802;52.574;14.398;2023-08-24T06:09:30;101842.03;;;17.88;78.37
77639;BME280;66802;52.574;14.398;2023-08-24T06:11:55;101846.81;;;17.94;77.63
77639;BME280;66802;52.574;14.398;2023-08-24T06:14:21;101843.53;;;17.99;76.60
77639;BME280;66802;52.574;14.398;2023-08-24T06:16:46;101851.69;;;18.07;76.99
77639;BME280;66802;52.574;14.398;2023-08-24T06:19:13;101844.00;;;18.10;76.54
77639;BME280;66802;52.574;14.398;2023-08-24T06:21:39;101840.56;;;18.16;76.43
77639;BME280;66802;52.574;14.398;2023-08-24T06:24:05;101848.06;;;18.22;76.85
77639;BME280;66802;52.574;14.398;2023-08-24T06:26:30;101847.31;;;18.29;76.44
77639;BME280;66802;52.574;14.398;2023-08-24T06:28:56;101845.28;;;18.31;76.19
77639;BME280;66802;52.574;14.398;2023-08-24T06:31:21;101847.31;;;18.37;75.99
77639;BME280;66802;52.574;14.398;2023-08-24T06:33:48;101850.69;;;18.47;75.35
77639;BME280;66802;52.574;14.398;2023-08-24T06:36:14;101841.72;;;18.61;74.78
77639;BME280;66802;52.574;14.398;2023-08-24T06:38:39;101839.56;;;18.79;73.61
77639;BME280;66802;52.574;14.398;2023-08-24T06:41:05;101832.66;;;18.91;72.66
77639;BME280;66802;52.574;14.398;2023-08-24T06:43:30;101830.38;;;18.95;72.70
77639;BME280;66802;52.574;14.398;2023-08-24T06:45:56;101843.19;;;19.03;73.06
77639;BME280;66802;52.574;14.398;2023-08-24T06:48:22;101835.25;;;19.08;73.29
77639;BME280;66802;52.574;14.398;2023-08-24T06:50:48;101835.50;;;19.21;73.90
77639;BME280;66802;52.574;14.398;2023-08-24T06:53:13;101840.44;;;19.40;73.02
77639;BME280;66802;52.574;14.398;2023-08-24T06:55:42;101839.50;;;19.56;72.42
77639;BME280;66802;52.574;14.398;2023-08-24T06:58:07;101846.69;;;19.72;72.35
77639;BME280;66802;52.574;14.398;2023-08-24T07:00:33;101847.56;;;19.87;71.53
77639;BME280;66802;52.574;14.398;2023-08-24T07:03:01;101842.06;;;20.16;70.36
77639;BME280;66802;52.574;14.398;2023-08-24T07:05:27;101847.53;;;20.31;69.52
77639;BME280;66802;52.574;14.398;2023-08-24T07:07:54;101844.72;;;20.39;69.30
77639;BME280;66802;52.574;14.398;2023-08-24T07:10:20;101836.50;;;20.39;70.52
77639;BME280;66802;52.574;14.398;2023-08-24T07:12:45;101836.97;;;20.43;70.45
77639;BME280;66802;52.574;14.398;2023-08-24T07:15:12;101831.72;;;20.62;67.16
77639;BME280;66802;52.574;14.398;2023-08-24T07:17:38;101835.97;;;20.65;67.15
77639;BME280;66802;52.574;14.398;2023-08-24T07:20:04;101836.69;;;20.73;67.45
77639;BME280;66802;52.574;14.398;2023-08-24T07:22:33;101842.72;;;20.84;66.94
77639;BME280;66802;52.574;14.398;2023-08-24T07:25:01;101844.75;;;20.96;66.72
77639;BME280;66802;52.574;14.398;2023-08-24T07:27:33;101847.22;;;21.12;66.74
77639;BME280;66802;52.574;14.398;2023-08-24T07:29:59;101849.94;;;21.27;65.09
77639;BME280;66802;52.574;14.398;2023-08-24T07:32:28;101846.91;;;21.43;62.97
77639;BME280;66802;52.574;14.398;2023-08-24T07:34:53;101855.44;;;21.55;63.22
77639;BME280;66802;52.574;14.398;2023-08-24T07:37:19;101853.47;;;21.70;63.60
77639;BME280;66802;52.574;14.398;2023-08-24T07:39:44;101855.00;;;22.07;61.59
77639;BME280;66802;52.574;14.398;2023-08-24T07:42:10;101851.66;;;22.18;60.68
77639;BME280;66802;52.574;14.398;2023-08-24T07:44:36;101854.56;;;22.45;59.03
77639;BME280;66802;52.574;14.398;2023-08-24T07:47:02;101861.38;;;22.55;57.35
77639;BME280;66802;52.574;14.398;2023-08-24T07:49:28;101860.13;;;22.65;56.38
77639;BME280;66802;52.574;14.398;2023-08-24T07:51:53;101858.50;;;22.77;56.01
77639;BME280;66802;52.574;14.398;2023-08-24T07:54:19;101863.41;;;22.88;55.35
77639;BME280;66802;52.574;14.398;2023-08-24T07:56:45;101871.06;;;22.92;55.88
77639;BME280;66802;52.574;14.398;2023-08-24T07:59:11;101865.56;;;22.92;56.49
77639;BME280;66802;52.574;14.398;2023-08-24T08:01:36;101863.00;;;22.98;55.65
77639;BME280;66802;52.574;14.398;2023-08-24T08:04:02;101864.72;;;23.05;54.62
77639;BME280;66802;52.574;14.398;2023-08-24T08:06:27;101859.88;;;23.20;56.09
77639;BME280;66802;52.574;14.398;2023-08-24T08:08:53;101854.38;;;23.40;56.49
77639;BME280;66802;52.574;14.398;2023-08-24T08:11:19;101857.81;;;23.69;55.99
77639;BME280;66802;52.574;14.398;2023-08-24T08:13:44;101860.72;;;23.93;54.18
77639;BME280;66802;52.574;14.398;2023-08-24T08:16:10;101862.19;;;24.02;53.59
77639;BME280;66802;52.574;14.398;2023-08-24T08:18:36;101864.06;;;24.15;53.75
77639;BME280;66802;52.574;14.398;2023-08-24T08:21:17;101858.34;;;24.30;52.67
77639;BME280;66802;52.574;14.398;2023-08-24T08:23:44;101859.63;;;24.27;52.02
77639;BME280;66802;52.574;14.398;2023-08-24T08:26:10;101857.66;;;24.34;52.66
77639;BME280;66802;52.574;14.398;2023-08-24T08:28:36;101855.28;;;24.45;52.94
77639;BME280;66802;52.574;14.398;2023-08-24T08:31:02;101854.84;;;24.54;50.94
77639;BME280;66802;52.574;14.398;2023-08-24T08:33:29;101853.75;;;24.62;51.94
77639;BME280;66802;52.574;14.398;2023-08-24T08:35:55;101849.66;;;24.71;51.60
77639;BME280;66802;52.574;14.398;2023-08-24T08:38:20;101834.72;;;24.85;52.03
77639;BME280;66802;52.574;14.398;2023-08-24T08:40:56;101831.63;;;25.06;50.84
77639;BME280;66802;52.574;14.398;2023-08-24T08:43:26;101828.13;;;25.18;49.72
77639;BME280;66802;52.574;14.398;2023-08-24T08:45:55;101814.44;;;25.29;49.48
77639;BME280;66802;52.574;14.398;2023-08-24T08:48:21;101820.75;;;25.36;48.76
77639;BME280;66802;52.574;14.398;2023-08-24T08:50:52;101820.97;;;25.35;48.90
77639;BME280;66802;52.574;14.398;2023-08-24T08:53:22;101820.13;;;25.34;49.68
77639;BME280;66802;52.574;14.398;2023-08-24T08:55:53;101828.59;;;25.39;49.26
77639;BME280;66802;52.574;14.398;2023-08-24T08:58:20;101827.06;;;25.43;48.38
77639;BME280;66802;52.574;14.398;2023-08-24T09:00:47;101827.75;;;25.39;48.36
77639;BME280;66802;52.574;14.398;2023-08-24T09:03:15;101809.19;;;25.46;48.68
77639;BME280;66802;52.574;14.398;2023-08-24T09:05:42;101813.69;;;25.65;50.19
77639;BME280;66802;52.574;14.398;2023-08-24T09:08:09;101816.72;;;25.82;48.08
77639;BME280;66802;52.574;14.398;2023-08-24T09:10:34;101805.13;;;25.92;47.59
77639;BME280;66802;52.574;14.398;2023-08-24T09:13:00;101803.91;;;26.06;46.74
77639;BME280;66802;52.574;14.398;2023-08-24T09:15:26;101797.53;;;26.05;48.33
77639;BME280;66802;52.574;14.398;2023-08-24T09:17:53;101780.72;;;26.18;46.72
77639;BME280;66802;52.574;14.398;2023-08-24T09:20:20;101778.97;;;26.24;47.28
77639;BME280;66802;52.574;14.398;2023-08-24T09:22:45;101785.06;;;26.14;47.26
77639;BME280;66802;52.574;14.398;2023-08-24T09:25:11;101772.91;;;25.97;46.54
77639;BME280;66802;52.574;14.398;2023-08-24T09:27:37;101780.38;;;25.78;47.99
77639;BME280;66802;52.574;14.398;2023-08-24T09:30:03;101781.59;;;25.83;47.20
77639;BME280;66802;52.574;14.398;2023-08-24T09:32:30;101783.03;;;25.67;48.09
77639;BME280;66802;52.574;14.398;2023-08-24T09:35:11;101778.66;;;25.77;47.06
77639;BME280;66802;52.574;14.398;2023-08-24T09:37:37;101778.31;;;25.74;46.17
77639;BME280;66802;52.574;14.398;2023-08-24T09:40:05;101768.53;;;25.71;47.59
77639;BME280;66802;52.574;14.398;2023-08-24T09:42:38;101778.34;;;25.67;47.70
77639;BME280;66802;52.574;14.398;2023-08-24T09:45:10;101772.91;;;25.61;46.11
77639;BME280;66802;52.574;14.398;2023-08-24T09:47:37;101766.53;;;25.54;46.42
77639;BME280;66802;52.574;14.398;2023-08-24T09:50:04;101760.25;;;25.46;47.74
77639;BME280;66802;52.574;14.398;2023-08-24T09:52:34;101760.25;;;25.46;47.31
77639;BME280;66802;52.574;14.398;2023-08-24T09:55:09;101752.50;;;25.55;47.91
77639;BME280;66802;52.574;14.398;2023-08-24T09:57:38;101760.78;;;25.80;47.16
77639;BME280;66802;52.574;14.398;2023-08-24T10:00:06;101753.69;;;26.02;47.30
77639;BME280;66802;52.574;14.398;2023-08-24T10:02:56;101752.97;;;26.25;45.83
77639;BME280;66802;52.574;14.398;2023-08-24T10:05:26;101748.84;;;26.34;44.80
77639;BME280;66802;52.574;14.398;2023-08-24T10:07:56;101750.31;;;26.37;45.85
77639;BME280;66802;52.574;14.398;2023-08-24T10:10:25;101746.34;;;26.44;46.35
77639;BME280;66802;52.574;14.398;2023-08-24T10:13:00;101748.09;;;26.57;45.31
77639;BME280;66802;52.574;14.398;2023-08-24T10:15:30;101745.16;;;26.52;44.44
77639;BME280;66802;52.574;14.398;2023-08-24T10:17:56;101740.59;;;26.46;45.41
77639;BME280;66802;52.574;14.398;2023-08-24T10:20:24;101737.84;;;26.58;45.62
77639;BME280;66802;52.574;14.398;2023-08-24T10:22:51;101741.13;;;26.66;45.83
77639;BME280;66802;52.574;14.398;2023-08-24T10:25:17;101740.69;;;26.81;45.30
77639;BME280;66802;52.574;14.398;2023-08-24T10:27:47;101737.81;;;26.87;44.11
77639;BME280;66802;52.574;14.398;2023-08-24T10:30:17;101731.78;;;26.79;42.75
77639;BME280;66802;52.574;14.398;2023-08-24T10:32:45;101733.56;;;26.85;44.10
77639;BME280;66802;52.574;14.398;2023-08-24T10:35:15;101731.88;;;26.84;44.20
77639;BME280;66802;52.574;14.398;2023-08-24T10:37:44;101735.50;;;26.84;43.91
77639;BME280;66802;52.574;14.398;2023-08-24T10:40:13;101731.19;;;26.88;45.21
77639;BME280;66802;52.574;14.398;2023-08-24T10:42:46;101728.09;;;26.97;43.48
77639;BME280;66802;52.574;14.398;2023-08-24T10:45:14;101732.44;;;27.04;44.25
77639;BME280;66802;52.574;14.398;2023-08-24T10:47:44;101736.91;;;27.17;43.25
77639;BME280;66802;52.574;14.398;2023-08-24T10:50:14;101729.81;;;27.21;43.14
77639;BME280;66802;52.574;14.398;2023-08-24T10:52:43;101729.34;;;27.24;44.26
77639;BME280;66802;52.574;14.398;2023-08-24T10:55:25;101731.84;;;27.37;43.61
77639;BME280;66802;52.574;14.398;2023-08-24T10:57:58;101728.22;;;27.37;42.96
77639;BME280;66802;52.574;14.398;2023-08-24T11:00:28;101723.28;;;27.27;42.93
77639;BME280;66802;52.574;14.398;2023-08-24T11:02:55;101718.56;;;27.04;43.83
77639;BME280;66802;52.574;14.398;2023-08-24T11:05:21;101717.75;;;27.04;42.32
77639;BME280;66802;52.574;14.398;2023-08-24T11:07:57;101721.56;;;26.91;43.55
77639;BME280;66802;52.574;14.398;2023-08-24T11:10:25;101723.34;;;26.85;44.58
77639;BME280;66802;52.574;14.398;2023-08-24T11:13:07;101714.59;;;27.00;43.79
77639;BME280;66802;52.574;14.398;2023-08-24T11:15:37;101715.47;;;27.12;43.57
77639;BME280;66802;52.574;14.398;2023-08-24T11:20:50;101709.66;;;27.37;43.38
77639;BME280;66802;52.574;14.398;2023-08-24T11:23:17;101712.69;;;27.36;43.28
77639;BME280;66802;52.574;14.398;2023-08-24T11:25:44;101712.44;;;27.37;42.68
77639;BME280;66802;52.574;14.398;2023-08-24T11:28:09;101712.44;;;27.37;42.91
77639;BME280;66802;52.574;14.398;2023-08-24T11:30:35;101711.34;;;27.38;42.17
77639;BME280;66802;52.574;14.398;2023-08-24T11:33:02;101703.63;;;27.40;43.36
77639;BME280;66802;52.574;14.398;2023-08-24T11:35:28;101692.28;;;27.53;41.87
77639;BME280;66802;52.574;14.398;2023-08-24T11:37:57;101684.81;;;27.66;41.38
77639;BME280;66802;52.574;14.398;2023-08-24T11:40:23;101686.47;;;27.78;40.73
77639;BME280;66802;52.574;14.398;2023-08-24T11:42:58;101692.03;;;27.78;40.17
77639;BME280;66802;52.574;14.398;2023-08-24T11:45:24;101679.34;;;27.71;40.55
77639;BME280;66802;52.574;14.398;2023-08-24T11:47:55;101675.66;;;27.65;40.35
77639;BME280;66802;52.574;14.398;2023-08-24T11:50:22;101670.47;;;27.69;40.05
77639;BME280;66802;52.574;14.398;2023-08-24T11:52:48;101671.78;;;27.66;41.09
77639;BME280;66802;52.574;14.398;2023-08-24T11:55:14;101666.44;;;27.76;40.98
77639;BME280;66802;52.574;14.398;2023-08-24T11:57:41;101670.41;;;27.80;41.31
77639;BME280;66802;52.574;14.398;2023-08-24T12:00:08;101661.59;;;27.83;41.29
77639;BME280;66802;52.574;14.398;2023-08-24T12:02:35;101655.19;;;27.83;41.48
77639;BME280;66802;52.574;14.398;2023-08-24T12:05:01;101645.50;;;27.97;39.95
77639;BME280;66802;52.574;14.398;2023-08-24T12:07:31;101645.22;;;28.10;41.18
77639;BME280;66802;52.574;14.398;2023-08-24T12:10:00;101632.97;;;28.23;39.18
77639;BME280;66802;52.574;14.398;2023-08-24T12:12:27;101633.09;;;28.16;39.33
77639;BME280;66802;52.574;14.398;2023-08-24T12:14:55;101629.84;;;28.19;39.25
77639;BME280;66802;52.574;14.398;2023-08-24T12:17:22;101619.59;;;28.20;40.11
77639;BME280;66802;52.574;14.398;2023-08-24T12:20:00;101618.50;;;28.21;40.63
77639;BME280;66802;52.574;14.398;2023-08-24T12:22:26;101618.50;;;28.21;39.63
77639;BME280;66802;52.574;14.398;2023-08-24T12:24:53;101628.00;;;28.25;39.21
77639;BME280;66802;52.574;14.398;2023-08-24T12:27:22;101628.00;;;28.25;39.71
77639;BME280;66802;52.574;14.398;2023-08-24T12:29:48;101622.59;;;28.18;40.49
77639;BME280;66802;52.574;14.398;2023-08-24T12:32:15;101620.28;;;28.15;40.04
77639;BME280;66802;52.574;14.398;2023-08-24T12:34:42;101628.78;;;28.09;40.21
77639;BME280;66802;52.574;14.398;2023-08-24T12:37:08;101623.97;;;28.04;39.68
77639;BME280;66802;52.574;14.398;2023-08-24T12:39:39;101623.84;;;28.11;38.44
77639;BME280;66802;52.574;14.398;2023-08-24T12:42:05;101613.66;;;28.16;40.27
77639;BME280;66802;52.574;14.398;2023-08-24T12:44:32;101618.50;;;28.21;40.13
77639;BME280;66802;52.574;14.398;2023-08-24T12:46:58;101615.38;;;28.17;40.33
77639;BME280;66802;52.574;14.398;2023-08-24T12:49:24;101602.00;;;28.31;40.43
77639;BME280;66802;52.574;14.398;2023-08-24T12:51:50;101591.31;;;28.40;40.19
77639;BME280;66802;52.574;14.398;2023-08-24T12:54:15;101578.94;;;28.47;40.04
77639;BME280;66802;52.574;14.398;2023-08-24T12:56:41;101573.47;;;28.36;38.96
77639;BME280;66802;52.574;14.398;2023-08-24T12:59:07;101569.34;;;28.38;39.40
77639;BME280;66802;52.574;14.398;2023-08-24T13:01:33;101563.13;;;28.48;38.41
77639;BME280;66802;52.574;14.398;2023-08-24T13:03:58;101567.50;;;28.44;38.14
77639;BME280;66802;52.574;14.398;2023-08-24T13:06:24;101558.34;;;28.43;38.91
77639;BME280;66802;52.574;14.398;2023-08-24T13:08:50;101547.31;;;28.31;38.20
77639;BME280;66802;52.574;14.398;2023-08-24T13:11:15;101548.47;;;28.36;38.58
77639;BME280;66802;52.574;14.398;2023-08-24T13:13:41;101545.94;;;28.51;38.65
77639;BME280;66802;52.574;14.398;2023-08-24T13:16:07;101531.31;;;28.55;37.29
77639;BME280;66802;52.574;14.398;2023-08-24T13:18:32;101544.16;;;28.61;37.57
77639;BME280;66802;52.574;14.398;2023-08-24T13:20:58;101540.97;;;28.53;38.20
77639;BME280;66802;52.574;14.398;2023-08-24T13:23:23;101536.56;;;28.57;37.56
77639;BME280;66802;52.574;14.398;2023-08-24T13:25:49;101536.06;;;28.60;37.59
77639;BME280;66802;52.574;14.398;2023-08-24T13:28:14;101528.94;;;28.47;36.01
77639;BME280;66802;52.574;14.398;2023-08-24T13:30:40;101528.69;;;28.32;36.58
77639;BME280;66802;52.574;14.398;2023-08-24T13:33:06;101521.03;;;28.39;37.64
77639;BME280;66802;52.574;14.398;2023-08-24T13:35:32;101518.94;;;28.29;37.68
77639;BME280;66802;52.574;14.398;2023-08-24T13:37:58;101508.91;;;28.28;39.35
77639;BME280;66802;52.574;14.398;2023-08-24T13:40:23;101504.00;;;28.36;38.16
77639;BME280;66802;52.574;14.398;2023-08-24T13:42:49;101508.41;;;28.31;37.43
77639;BME280;66802;52.574;14.398;2023-08-24T13:45:14;101504.34;;;28.39;39.21
77639;BME280;66802;52.574;14.398;2023-08-24T13:47:41;101501.97;;;28.48;35.35
77639;BME280;66802;52.574;14.398;2023-08-24T13:50:06;101505.59;;;28.48;36.29
77639;BME280;66802;52.574;14.398;2023-08-24T13:52:33;101493.84;;;28.24;36.36
77639;BME280;66802;52.574;14.398;2023-08-24T13:54:59;101491.47;;;28.16;35.50
77639;BME280;66802;52.574;14.398;2023-08-24T13:57:24;101488.44;;;28.01;36.67
77639;BME280;66802;52.574;14.398;2023-08-24T13:59:50;101494.00;;;28.01;38.65
77639;BME280;66802;52.574;14.398;2023-08-24T14:02:15;101483.97;;;28.00;37.48
77639;BME280;66802;52.574;14.398;2023-08-24T14:04:41;101492.81;;;27.97;38.09
77639;BME280;66802;52.574;14.398;2023-08-24T14:07:06;101480.84;;;27.96;37.49
77639;BME280;66802;52.574;14.398;2023-08-24T14:09:32;101472.94;;;28.05;37.65
77639;BME280;66802;52.574;14.398;2023-08-24T14:11:58;101470.00;;;27.95;39.89
77639;BME280;66802;52.574;14.398;2023-08-24T14:14:24;101474.72;;;28.11;39.82
77639;BME280;66802;52.574;14.398;2023-08-24T14:16:56;101469.69;;;28.25;38.96
77639;BME280;66802;52.574;14.398;2023-08-24T14:19:22;101459.50;;;28.30;39.27
77639;BME280;66802;52.574;14.398;2023-08-24T14:21:48;101467.09;;;28.18;37.86
77639;BME280;66802;52.574;14.398;2023-08-24T14:24:13;101459.91;;;28.06;39.39
77639;BME280;66802;52.574;14.398;2023-08-24T14:26:39;101465.47;;;28.06;38.89
77639;BME280;66802;52.574;14.398;2023-08-24T14:29:11;101463.47;;;28.01;39.74
77639;BME280;66802;52.574;14.398;2023-08-24T14:31:37;101469.31;;;28.05;40.45
77639;BME280;66802;52.574;14.398;2023-08-24T14:34:03;101464.56;;;28.00;41.09
77639;BME280;66802;52.574;14.398;2023-08-24T14:36:29;101444.75;;;27.96;41.62
77639;BME280;66802;52.574;14.398;2023-08-24T14:38:55;101439.47;;;27.95;40.93
77639;BME280;66802;52.574;14.398;2023-08-24T14:41:21;101435.84;;;27.94;40.30
77639;BME280;66802;52.574;14.398;2023-08-24T14:43:47;101427.78;;;28.10;40.24
77639;BME280;66802;52.574;14.398;2023-08-24T14:46:13;101427.44;;;28.06;40.09
77639;BME280;66802;52.574;14.398;2023-08-24T14:48:39;101419.19;;;27.94;39.02
77639;BME280;66802;52.574;14.398;2023-08-24T14:51:05;101411.53;;;28.02;37.56
77639;BME280;66802;52.574;14.398;2023-08-24T14:53:31;101427.75;;;27.93;37.91
77639;BME280;66802;52.574;14.398;2023-08-24T14:55:58;101430.63;;;27.65;40.15
77639;BME280;66802;52.574;14.398;2023-08-24T14:58:25;101439.38;;;27.73;40.55
77639;BME280;66802;52.574;14.398;2023-08-24T15:00:52;101447.78;;;27.95;40.28
77639;BME280;66802;52.574;14.398;2023-08-24T15:03:19;101441.75;;;27.98;40.92
77639;BME280;66802;52.574;14.398;2023-08-24T15:05:55;101441.75;;;27.98;41.45
77639;BME280;66802;52.574;14.398;2023-08-24T15:08:21;101450.84;;;28.10;40.35
77639;BME280;66802;52.574;14.398;2023-08-24T15:10:53;101446.06;;;28.22;41.62
77639;BME280;66802;52.574;14.398;2023-08-24T15:13:19;101440.47;;;28.39;39.68
77639;BME280;66802;52.574;14.398;2023-08-24T15:15:44;101442.03;;;28.52;39.46
77639;BME280;66802;52.574;14.398;2023-08-24T15:18:10;101445.50;;;28.42;40.79
77639;BME280;66802;52.574;14.398;2023-08-24T15:20:36;101448.66;;;28.29;40.60
77639;BME280;66802;52.574;14.398;2023-08-24T15:23:02;101447.53;;;28.13;41.38
77639;BME280;66802;52.574;14.398;2023-08-24T15:25:28;101451.22;;;28.02;40.78
77639;BME280;66802;52.574;14.398;2023-08-24T15:27:53;101442.00;;;27.96;39.48
77639;BME280;66802;52.574;14.398;2023-08-24T15:30:19;101452.34;;;28.01;38.41
77639;BME280;66802;52.574;14.398;2023-08-24T15:32:45;101446.44;;;27.97;39.47
77639;BME280;66802;52.574;14.398;2023-08-24T15:35:11;101445.09;;;28.17;40.20
77639;BME280;66802;52.574;14.398;2023-08-24T15:37:37;101445.78;;;28.07;40.20
77639;BME280;66802;52.574;14.398;2023-08-24T15:40:05;101454.28;;;28.01;41.47
77639;BME280;66802;52.574;14.398;2023-08-24T15:42:31;101455.28;;;27.94;41.61